Acme, Wyoming
Current Conditions -  °F | °C
As of 9:53 AM on Saturday 20 Dec 2014 (Local Time) from KSHR Reporting Station
Clear Clear  
Wind Chill: 26°   Ceiling: Unl
Heat Index: 32°   Visibility: 10mi
Dew Point: 22°   Wind: 6mph
Humidity: 66%   Direction: 180°S
Pressure: 29.94"   Gusts: NA
Location:  44.8885°N, 107.104°W
Report Text: KSHR 201653Z AUTO 18005KT 10SM CLR 00/M06 A2994 RMK AO2 SLP176 T00001056
Loading
Personal Weather Stations






























Interactive Weather Map New forecast layout! Learn more

10-Day Weather Forecast

Advertisements
Track Severe Weather on mobile